ADDS METAR Data INFO
IDs: Format: Raw Decoded Include TAF

Data at: 0502 UTC 23 May 2017

KECU 230455Z AUTO 00000KT 9SM SCT007 20/19 A2998 RMK AO2
KECU 230435Z AUTO 00000KT 9SM CLR 21/19 A2998 RMK AO2
KECU 230415Z AUTO 20006KT 4SM BR FEW014 21/20 A2998 RMK AO2
KECU 230355Z AUTO 25005KT 7SM FEW011 BKN016 BKN031 21/20 A3002 RMK AO2
KECU 230335Z AUTO 29006KT 10SM FEW011 OVC017 22/20 A3002 RMK AO2
KECU 230315Z AUTO 00000KT 10SM BKN015 BKN023 OVC046 22/20 A3000 RMK AO2
KECU 230255Z AUTO 00000KT 10SM BKN017 OVC023 22/20 A3000 RMK AO2
KECU 230235Z AUTO 00000KT 10SM BKN021 BKN030 OVC034 22/19 A2999 RMK AO2
KECU 230215Z AUTO 00000KT 10SM SCT028 OVC034 22/19 A2997 RMK AO2
KECU 230155Z AUTO 00000KT 10SM FEW020 BKN028 OVC049 22/19 A2996 RMK AO2
KECU 230135Z AUTO 00000KT 10SM SCT020 BKN049 22/19 A2994 RMK AO2
KECU 230115Z AUTO 14003KT 10SM BKN049 23/19 A2993 RMK AO2
KECU 230055Z AUTO 00000KT 10SM FEW030 OVC049 23/19 A2994 RMK AO2
KECU 230035Z AUTO 00000KT 10SM FEW019 SCT030 OVC049 23/19 A2995 RMK AO2
KECU 230015Z AUTO 00000KT 9SM FEW021 OVC049 23/19 A2995 RMK AO2
KECU 222355Z AUTO 00000KT 9SM BKN021 BKN026 OVC047 24/19 A2996 RMK AO2
KECU 222335Z AUTO 00000KT 9SM BKN021 BKN026 OVC047 24/19 A2996 RMK AO2
KECU 222315Z AUTO 11006KT 9SM BKN020 BKN047 24/19 A2995 RMK AO2
KECU 222255Z AUTO 12003KT 9SM BKN020 BKN047 24/19 A2996 RMK AO2
KECU 222235Z AUTO 15006KT 9SM SCT020 OVC047 24/19 A2996 RMK AO2
KECU 222215Z AUTO 12006KT 10SM SCT021 OVC045 24/19 A2996 RMK AO2
KECU 222155Z AUTO 13004KT 10SM SCT019 OVC043 23/19 A2997 RMK AO2
KECU 222135Z AUTO 11004KT 10SM SCT016 OVC043 23/19 A2998 RMK AO2
KECU 222115Z AUTO 09004KT 10SM BKN014 OVC043 23/19 A2999 RMK AO2
KECU 222055Z AUTO 08005KT 9SM BKN014 OVC041 22/19 A3000 RMK AO2
KECU 222035Z AUTO 10005KT 10SM BKN012 OVC041 22/19 A3000 RMK AO2
KECU 222015Z AUTO 10005KT 10SM BKN010 OVC039 22/19 A3001 RMK AO2
KECU 221955Z AUTO 09005KT 9SM OVC010 22/19 A3002 RMK AO2
KECU 221935Z AUTO 07006KT 10SM OVC008 21/18 A3002 RMK AO2
KECU 221915Z AUTO 07006KT 10SM OVC008 21/18 A3002 RMK AO2
KECU 221855Z AUTO 08007KT 9SM OVC006 21/18 A3003 RMK AO2
KECU 221835Z AUTO 10005KT 9SM OVC006 20/18 A3004 RMK AO2
KECU 221815Z AUTO 08007KT 10SM OVC006 20/18 A3004 RMK AO2
KECU 221755Z AUTO 10007KT 9SM OVC006 20/18 A3004 RMK AO2
KECU 221735Z AUTO 10007KT 9SM OVC005 19/18 A3004 RMK AO2
KECU 221715Z AUTO 10008KT 9SM OVC004 19/18 A3005 RMK AO2
KECU 221655Z AUTO 09007KT 8SM OVC003 18/18 A3005 RMK AO2
KECU 221635Z AUTO 08008KT 7SM OVC002 18/18 A3005 RMK AO2
KECU 221615Z AUTO 08006KT 5SM BR OVC002 18/18 A3006 RMK AO2
KECU 221555Z AUTO 09006KT 5SM BR OVC002 18/18 A3006 RMK AO2
KECU 221535Z AUTO 08007KT 5SM BR OVC001 18/18 A3006 RMK AO2
KECU 221515Z AUTO 10006KT 2SM BR OVC001 17/17 A3006 RMK AO2
KECU 221455Z AUTO 08007KT 1/2SM FG OVC001 17/17 A3006 RMK AO2
KECU 221435Z AUTO 07006KT M1/4SM FG OVC001 17/17 A3006 RMK AO2
KECU 221415Z AUTO 09005KT M1/4SM FG OVC001 17/17 A3007 RMK AO2
KECU 221355Z AUTO 09006KT 1/4SM FG OVC001 17/17 A3007 RMK AO2
KECU 221335Z AUTO 11005KT 1/4SM FG OVC001 17/16 A3007 RMK AO2
KECU 221315Z AUTO 10006KT M1/4SM FG OVC001 16/16 A3007 RMK AO2
KECU 221255Z AUTO 08007KT M1/4SM FG OVC001 16/16 A3007 RMK AO2
KECU 221235Z AUTO 07005KT M1/4SM FG OVC001 16/16 A3007 RMK AO2
KECU 221215Z AUTO 07007KT M1/4SM FG OVC001 17/16 A3006 RMK AO2
KECU 221155Z AUTO 09006KT 1/4SM FG OVC001 17/16 A3007 RMK AO2 P0001
KECU 221135Z AUTO 08006KT 1/2SM FG OVC001 16/16 A3007 RMK AO2 P0001
KECU 221115Z AUTO 09006KT 1/4SM -RA OVC001 16/16 A3007 RMK AO2
KECU 221055Z AUTO 08004KT 1/4SM RA OVC001 16/16 A3007 RMK AO2
KECU 221035Z AUTO 08005KT 1/2SM FG OVC001 16/16 A3008 RMK AO2
KECU 221015Z AUTO 09006KT 1SM BR OVC001 16/16 A3007 RMK AO2
KECU 220955Z AUTO 08005KT 1 1/2SM BR OVC001 16/16 A3008 RMK AO2
KECU 220935Z AUTO 09005KT 1 1/4SM BR OVC001 16/15 A3008 RMK AO2
KECU 220915Z AUTO 08005KT 1 1/2SM BR OVC001 16/15 A3008 RMK AO2
KECU 220855Z AUTO 08006KT 1 1/2SM BR OVC001 16/15 A3009 RMK AO2
KECU 220835Z AUTO 08004KT 2 1/2SM BR OVC004 16/15 A3010 RMK AO2
KECU 220815Z AUTO 07004KT 7SM FEW002 OVC008 16/15 A3011 RMK AO2
KECU 220755Z AUTO 07005KT 7SM SCT002 BKN008 OVC011 15/15 A3011 RMK AO2
KECU 220735Z AUTO 06004KT 8SM FEW003 OVC013 15/15 A3012 RMK AO2
KECU 220715Z AUTO 08005KT 8SM FEW002 OVC015 15/15 A3012 RMK AO2
KECU 220655Z AUTO 09004KT 8SM FEW001 OVC017 15/15 A3012 RMK AO2
KECU 220635Z AUTO 08003KT 6SM BR BKN001 BKN019 15/14 A3012 RMK AO2
KECU 220615Z AUTO 00000KT 5SM BR BKN001 15/14 A3012 RMK AO2
KECU 220555Z AUTO 07003KT 7SM CLR 15/14 A3011 RMK AO2
KECU 220535Z AUTO 08005KT 7SM FEW001 15/14 A3010 RMK AO2
KECU 220515Z AUTO 09005KT 8SM FEW001 15/14 A3010 RMK AO2
KECU 220455Z AUTO 09004KT 9SM CLR 16/14 A3010 RMK AO2
KECU 220435Z AUTO 06007KT 10SM CLR 16/15 A3009 RMK AO2
KECU 220415Z AUTO 07006KT 10SM CLR 16/15 A3010 RMK AO2
KECU 220355Z AUTO 01004KT 10SM CLR 16/15 A3012 RMK AO2
KECU 220335Z AUTO 12006KT 10SM CLR 16/15 A3006 RMK AO2
KECU 220315Z AUTO 12009KT 10SM CLR 16/15 A3008 RMK AO2
KECU 220255Z AUTO 14003KT 10SM FEW100 16/15 A3012 RMK AO2
KECU 220235Z AUTO 13003KT 10SM SCT100 16/15 A3012 RMK AO2
KECU 220215Z AUTO 11006KT 10SM FEW110 16/14 A3009 RMK AO2
KECU 220155Z AUTO 11008G14KT 9SM -RA FEW011 SCT045 BKN110 15/14 A3009 RMK AO2 P0003
KECU 220135Z AUTO 10009KT 3SM -RA FEW004 BKN020 OVC100 15/14 A3011 RMK AO2 P0003
KECU 220115Z AUTO 09007KT 6SM RA FEW010 SCT048 BKN090 15/14 A3010 RMK AO2 P0001
KECU 220055Z AUTO 05007KT 9SM SCT120 15/14 A3010 RMK AO2
KECU 220035Z AUTO 04007KT 10SM SCT110 15/14 A3011 RMK AO2
KECU 220015Z AUTO 02007KT 8SM SCT100 SCT110 15/14 A3011 RMK AO2
KECU 212355Z AUTO 03008G14KT 10SM FEW042 BKN100 15/14 A3010 RMK AO2
KECU 212335Z AUTO 04006KT 10SM SCT046 BKN100 15/13 A3013 RMK AO2
KECU 212315Z AUTO 09008G14KT 10SM FEW046 15/13 A3013 RMK AO2
KECU 212255Z AUTO 08013KT 10SM FEW032 15/14 A3009 RMK AO2
KECU 212235Z AUTO 06009G14KT 9SM FEW024 15/14 A3011 RMK AO2
KECU 212215Z AUTO 05010G19KT 3SM -RA FEW001 BKN026 BKN048 15/14 A3011 RMK AO2
KECU 212155Z AUTO 05013G18KT 2SM +RA SCT006 BKN031 OVC048 16/14 A3013 RMK AO2 P0013
KECU 212135Z AUTO 02010G19KT 1 1/2SM +RA SCT001 BKN020 OVC029 16/14 A3016 RMK AO2 P0008
KECU 212115Z AUTO 03009KT 3SM RA SCT001 BKN020 OVC046 16/15 A3015 RMK AO2 P0002
KECU 212055Z AUTO 04010G15KT 4SM +RA SCT001 BKN030 OVC050 17/16 A3011 RMK AO2 P0008
KECU 212035Z AUTO 03009G15KT 3SM +RA SCT001 BKN032 OVC049 17/16 A3010 RMK AO2 P0005
KECU 212015Z AUTO 05010G16KT 5SM RA FEW002 SCT024 BKN043 17/16 A3011 RMK AO2 P0001
KECU 211955Z AUTO 07012G18KT 5SM RA FEW001 BKN020 OVC026 18/17 A3010 RMK AO2 P0005
KECU 211935Z AUTO 07006KT 4SM RA SCT001 OVC018 18/17 A3013 RMK AO2 P0003
KECU 211915Z AUTO 09008KT 5SM -RA SCT018 BKN043 BKN075 18/17 A3013 RMK AO2 P0001
KECU 211855Z AUTO 05010KT 4SM RA BKN018 BKN038 OVC100 18/17 A3011 RMK AO2
KECU 211835Z AUTO 07005KT 5SM -RA SCT015 BKN029 OVC045 19/17 A3013 RMK AO2
KECU 211815Z AUTO 07009KT 3SM -RA FEW001 SCT016 BKN030 19/17 A3012 RMK AO2
KECU 211755Z AUTO 09007KT 9SM -RA OVC016 20/17 A3014 RMK AO2
KECU 211735Z AUTO 10007KT 10SM OVC016 21/17 A3013 RMK AO2
KECU 211715Z AUTO 08007KT 9SM OVC014 20/17 A3013 RMK AO2


Page loaded:  05:02 UTC  |   10:02 PM Pacific  |   11:02 PM Mountain  |   12:02 AM Central  |   01:02 AM Eastern

 

ADVISORIES

FORECASTS

FORECASTS

OBSERVATIONS

USER TOOLS

ABOUT US